sensor_id;sensor_type;location;lat;lon;timestamp;P1;durP1;ratioP1;P2;durP2;ratioP2
32637;SDS011;19045;52.268;10.506;2023-04-05T00:01:58;8.20;;;4.90;;
32637;SDS011;19045;52.268;10.506;2023-04-05T00:04:25;12.98;;;5.32;;
32637;SDS011;19045;52.268;10.506;2023-04-05T00:06:52;9.65;;;5.00;;
32637;SDS011;19045;52.268;10.506;2023-04-05T00:09:21;14.52;;;6.93;;
32637;SDS011;19045;52.268;10.506;2023-04-05T00:11:48;14.15;;;7.50;;
32637;SDS011;19045;52.268;10.506;2023-04-05T00:14:14;10.13;;;6.75;;
32637;SDS011;19045;52.268;10.506;2023-04-05T00:16:41;11.27;;;5.85;;
32637;SDS011;19045;52.268;10.506;2023-04-05T00:19:09;11.02;;;6.53;;
32637;SDS011;19045;52.268;10.506;2023-04-05T00:21:36;11.60;;;6.95;;
32637;SDS011;19045;52.268;10.506;2023-04-05T00:24:04;13.85;;;6.95;;
32637;SDS011;19045;52.268;10.506;2023-04-05T00:26:31;16.83;;;7.40;;
32637;SDS011;19045;52.268;10.506;2023-04-05T00:28:58;13.02;;;7.32;;
32637;SDS011;19045;52.268;10.506;2023-04-05T00:31:25;12.73;;;6.95;;
32637;SDS011;19045;52.268;10.506;2023-04-05T00:33:51;12.82;;;7.22;;
32637;SDS011;19045;52.268;10.506;2023-04-05T00:36:19;13.00;;;7.97;;
32637;SDS011;19045;52.268;10.506;2023-04-05T00:38:46;11.38;;;7.65;;
32637;SDS011;19045;52.268;10.506;2023-04-05T00:41:14;15.23;;;7.93;;
32637;SDS011;19045;52.268;10.506;2023-04-05T00:43:41;13.32;;;7.15;;
32637;SDS011;19045;52.268;10.506;2023-04-05T00:46:07;14.90;;;7.22;;
32637;SDS011;19045;52.268;10.506;2023-04-05T00:48:34;11.25;;;6.72;;
32637;SDS011;19045;52.268;10.506;2023-04-05T00:51:03;12.43;;;6.55;;
32637;SDS011;19045;52.268;10.506;2023-04-05T00:53:34;11.05;;;6.75;;
32637;SDS011;19045;52.268;10.506;2023-04-05T00:56:01;10.15;;;5.93;;
32637;SDS011;19045;52.268;10.506;2023-04-05T00:58:29;10.95;;;6.60;;
32637;SDS011;19045;52.268;10.506;2023-04-05T01:00:57;13.43;;;7.60;;
32637;SDS011;19045;52.268;10.506;2023-04-05T01:03:31;10.95;;;6.45;;
32637;SDS011;19045;52.268;10.506;2023-04-05T01:06:03;13.35;;;6.43;;
32637;SDS011;19045;52.268;10.506;2023-04-05T01:08:46;12.23;;;6.93;;
32637;SDS011;19045;52.268;10.506;2023-04-05T01:11:20;13.20;;;7.13;;
32637;SDS011;19045;52.268;10.506;2023-04-05T01:13:51;12.80;;;7.47;;
32637;SDS011;19045;52.268;10.506;2023-04-05T01:16:23;11.00;;;6.25;;
32637;SDS011;19045;52.268;10.506;2023-04-05T01:18:50;12.30;;;7.07;;
32637;SDS011;19045;52.268;10.506;2023-04-05T01:21:25;13.50;;;6.88;;
32637;SDS011;19045;52.268;10.506;2023-04-05T01:24:15;15.40;;;6.50;;
32637;SDS011;19045;52.268;10.506;2023-04-05T01:26:55;14.65;;;7.18;;
32637;SDS011;19045;52.268;10.506;2023-04-05T01:29:34;14.60;;;6.78;;
32637;SDS011;19045;52.268;10.506;2023-04-05T01:32:10;16.25;;;7.63;;
32637;SDS011;19045;52.268;10.506;2023-04-05T01:34:45;12.73;;;7.20;;
32637;SDS011;19045;52.268;10.506;2023-04-05T01:37:17;15.80;;;7.40;;
32637;SDS011;19045;52.268;10.506;2023-04-05T01:39:45;11.68;;;6.88;;
32637;SDS011;19045;52.268;10.506;2023-04-05T01:42:12;10.98;;;6.60;;
32637;SDS011;19045;52.268;10.506;2023-04-05T01:44:40;10.02;;;6.55;;
32637;SDS011;19045;52.268;10.506;2023-04-05T01:47:07;16.55;;;6.93;;
32637;SDS011;19045;52.268;10.506;2023-04-05T01:49:33;12.57;;;6.85;;
32637;SDS011;19045;52.268;10.506;2023-04-05T01:52:00;10.82;;;6.25;;
32637;SDS011;19045;52.268;10.506;2023-04-05T01:54:26;11.27;;;6.93;;
32637;SDS011;19045;52.268;10.506;2023-04-05T01:56:53;12.35;;;6.18;;
32637;SDS011;19045;52.268;10.506;2023-04-05T01:59:20;11.20;;;6.32;;
32637;SDS011;19045;52.268;10.506;2023-04-05T02:01:48;11.25;;;6.03;;
32637;SDS011;19045;52.268;10.506;2023-04-05T02:04:15;11.23;;;6.65;;
32637;SDS011;19045;52.268;10.506;2023-04-05T02:06:42;13.18;;;6.82;;
32637;SDS011;19045;52.268;10.506;2023-04-05T02:09:09;13.98;;;6.85;;
32637;SDS011;19045;52.268;10.506;2023-04-05T02:11:35;11.43;;;6.35;;
32637;SDS011;19045;52.268;10.506;2023-04-05T02:14:02;13.40;;;6.85;;
32637;SDS011;19045;52.268;10.506;2023-04-05T02:16:29;11.40;;;7.07;;
32637;SDS011;19045;52.268;10.506;2023-04-05T02:18:58;13.40;;;7.43;;
32637;SDS011;19045;52.268;10.506;2023-04-05T02:21:25;14.98;;;8.02;;
32637;SDS011;19045;52.268;10.506;2023-04-05T02:23:52;14.77;;;6.97;;
32637;SDS011;19045;52.268;10.506;2023-04-05T02:26:19;11.27;;;6.35;;
32637;SDS011;19045;52.268;10.506;2023-04-05T02:28:46;16.02;;;6.82;;
32637;SDS011;19045;52.268;10.506;2023-04-05T02:31:13;13.38;;;6.55;;
32637;SDS011;19045;52.268;10.506;2023-04-05T02:33:40;15.85;;;7.55;;
32637;SDS011;19045;52.268;10.506;2023-04-05T02:36:09;13.07;;;7.35;;
32637;SDS011;19045;52.268;10.506;2023-04-05T02:38:38;14.25;;;7.88;;
32637;SDS011;19045;52.268;10.506;2023-04-05T02:41:07;11.95;;;7.30;;
32637;SDS011;19045;52.268;10.506;2023-04-05T02:43:35;14.45;;;7.05;;
32637;SDS011;19045;52.268;10.506;2023-04-05T02:46:02;15.23;;;7.90;;
32637;SDS011;19045;52.268;10.506;2023-04-05T02:48:29;15.50;;;7.50;;
32637;SDS011;19045;52.268;10.506;2023-04-05T02:50:55;22.08;;;8.02;;
32637;SDS011;19045;52.268;10.506;2023-04-05T02:53:23;16.30;;;7.57;;
32637;SDS011;19045;52.268;10.506;2023-04-05T02:55:50;17.95;;;8.23;;
32637;SDS011;19045;52.268;10.506;2023-04-05T02:58:18;14.10;;;8.20;;
32637;SDS011;19045;52.268;10.506;2023-04-05T03:00:45;15.52;;;8.65;;
32637;SDS011;19045;52.268;10.506;2023-04-05T03:03:15;13.52;;;7.43;;
32637;SDS011;19045;52.268;10.506;2023-04-05T03:05:42;15.15;;;7.70;;
32637;SDS011;19045;52.268;10.506;2023-04-05T03:08:09;20.75;;;8.18;;
32637;SDS011;19045;52.268;10.506;2023-04-05T03:10:43;17.48;;;7.55;;
32637;SDS011;19045;52.268;10.506;2023-04-05T03:13:10;15.50;;;7.85;;
32637;SDS011;19045;52.268;10.506;2023-04-05T03:15:37;14.05;;;8.15;;
32637;SDS011;19045;52.268;10.506;2023-04-05T03:18:04;17.05;;;8.40;;
32637;SDS011;19045;52.268;10.506;2023-04-05T03:20:30;18.38;;;9.23;;
32637;SDS011;19045;52.268;10.506;2023-04-05T03:22:59;14.18;;;7.82;;
32637;SDS011;19045;52.268;10.506;2023-04-05T03:25:26;15.55;;;7.63;;
32637;SDS011;19045;52.268;10.506;2023-04-05T03:27:54;14.55;;;7.80;;
32637;SDS011;19045;52.268;10.506;2023-04-05T03:30:22;14.25;;;7.00;;
32637;SDS011;19045;52.268;10.506;2023-04-05T03:32:48;14.25;;;6.88;;
32637;SDS011;19045;52.268;10.506;2023-04-05T03:35:15;18.83;;;7.63;;
32637;SDS011;19045;52.268;10.506;2023-04-05T03:37:43;15.90;;;7.63;;
32637;SDS011;19045;52.268;10.506;2023-04-05T03:40:10;18.23;;;7.68;;
32637;SDS011;19045;52.268;10.506;2023-04-05T03:42:37;12.57;;;6.70;;
32637;SDS011;19045;52.268;10.506;2023-04-05T03:45:06;14.43;;;6.13;;
32637;SDS011;19045;52.268;10.506;2023-04-05T03:47:33;12.23;;;6.20;;
32637;SDS011;19045;52.268;10.506;2023-04-05T03:50:00;13.57;;;6.22;;
32637;SDS011;19045;52.268;10.506;2023-04-05T03:52:27;12.77;;;6.32;;
32637;SDS011;19045;52.268;10.506;2023-04-05T03:54:54;13.25;;;6.60;;
32637;SDS011;19045;52.268;10.506;2023-04-05T03:57:21;13.75;;;6.57;;
32637;SDS011;19045;52.268;10.506;2023-04-05T03:59:47;12.27;;;6.60;;
32637;SDS011;19045;52.268;10.506;2023-04-05T04:02:16;14.48;;;6.80;;
32637;SDS011;19045;52.268;10.506;2023-04-05T04:04:42;15.60;;;6.68;;
32637;SDS011;19045;52.268;10.506;2023-04-05T04:07:09;12.38;;;6.95;;
32637;SDS011;19045;52.268;10.506;2023-04-05T04:09:36;14.10;;;7.65;;
32637;SDS011;19045;52.268;10.506;2023-04-05T04:12:02;12.52;;;6.72;;
32637;SDS011;19045;52.268;10.506;2023-04-05T04:14:29;12.60;;;6.25;;
32637;SDS011;19045;52.268;10.506;2023-04-05T04:16:56;13.95;;;6.63;;
32637;SDS011;19045;52.268;10.506;2023-04-05T04:19:24;12.73;;;6.03;;
32637;SDS011;19045;52.268;10.506;2023-04-05T04:21:51;10.43;;;5.95;;
32637;SDS011;19045;52.268;10.506;2023-04-05T04:24:20;11.93;;;6.18;;
32637;SDS011;19045;52.268;10.506;2023-04-05T04:26:47;11.73;;;5.75;;
32637;SDS011;19045;52.268;10.506;2023-04-05T04:29:14;9.75;;;5.15;;
32637;SDS011;19045;52.268;10.506;2023-04-05T04:31:41;8.32;;;5.32;;
32637;SDS011;19045;52.268;10.506;2023-04-05T04:34:10;10.65;;;5.70;;
32637;SDS011;19045;52.268;10.506;2023-04-05T04:36:39;13.70;;;5.57;;
32637;SDS011;19045;52.268;10.506;2023-04-05T04:39:12;11.13;;;4.93;;
32637;SDS011;19045;52.268;10.506;2023-04-05T04:41:42;8.07;;;5.00;;
32637;SDS011;19045;52.268;10.506;2023-04-05T04:44:11;10.95;;;6.00;;
32637;SDS011;19045;52.268;10.506;2023-04-05T04:46:38;11.43;;;5.72;;
32637;SDS011;19045;52.268;10.506;2023-04-05T04:49:07;10.75;;;4.72;;
32637;SDS011;19045;52.268;10.506;2023-04-05T04:51:36;9.95;;;4.97;;
32637;SDS011;19045;52.268;10.506;2023-04-05T04:54:04;12.88;;;5.72;;
32637;SDS011;19045;52.268;10.506;2023-04-05T04:56:31;10.75;;;5.55;;
32637;SDS011;19045;52.268;10.506;2023-04-05T04:58:58;12.10;;;5.47;;
32637;SDS011;19045;52.268;10.506;2023-04-05T05:01:24;9.75;;;5.57;;
32637;SDS011;19045;52.268;10.506;2023-04-05T05:03:51;13.27;;;5.80;;
32637;SDS011;19045;52.268;10.506;2023-04-05T05:06:17;10.27;;;5.38;;
32637;SDS011;19045;52.268;10.506;2023-04-05T05:08:46;10.07;;;5.18;;
32637;SDS011;19045;52.268;10.506;2023-04-05T05:11:16;9.63;;;5.38;;
32637;SDS011;19045;52.268;10.506;2023-04-05T05:13:43;9.40;;;5.70;;
32637;SDS011;19045;52.268;10.506;2023-04-05T05:16:10;14.35;;;5.82;;
32637;SDS011;19045;52.268;10.506;2023-04-05T05:18:36;11.40;;;5.35;;
32637;SDS011;19045;52.268;10.506;2023-04-05T05:21:05;9.25;;;5.30;;
32637;SDS011;19045;52.268;10.506;2023-04-05T05:23:32;11.13;;;5.28;;
32637;SDS011;19045;52.268;10.506;2023-04-05T05:25:58;10.07;;;5.57;;
32637;SDS011;19045;52.268;10.506;2023-04-05T05:28:26;9.15;;;5.28;;
32637;SDS011;19045;52.268;10.506;2023-04-05T05:30:53;12.35;;;4.82;;
32637;SDS011;19045;52.268;10.506;2023-04-05T05:33:20;13.02;;;5.55;;
32637;SDS011;19045;52.268;10.506;2023-04-05T05:35:47;10.38;;;7.82;;
32637;SDS011;19045;52.268;10.506;2023-04-05T05:38:13;12.00;;;6.72;;
32637;SDS011;19045;52.268;10.506;2023-04-05T05:40:40;9.70;;;5.63;;
32637;SDS011;19045;52.268;10.506;2023-04-05T05:43:07;11.07;;;5.88;;
32637;SDS011;19045;52.268;10.506;2023-04-05T05:45:35;12.52;;;5.47;;
32637;SDS011;19045;52.268;10.506;2023-04-05T05:48:02;13.82;;;5.55;;
32637;SDS011;19045;52.268;10.506;2023-04-05T05:50:30;16.55;;;6.10;;
32637;SDS011;19045;52.268;10.506;2023-04-05T05:52:57;16.67;;;6.53;;
32637;SDS011;19045;52.268;10.506;2023-04-05T05:55:24;13.18;;;6.63;;
32637;SDS011;19045;52.268;10.506;2023-04-05T05:57:50;18.33;;;7.07;;
32637;SDS011;19045;52.268;10.506;2023-04-05T06:00:18;12.25;;;6.75;;
32637;SDS011;19045;52.268;10.506;2023-04-05T06:02:47;12.88;;;7.55;;
32637;SDS011;19045;52.268;10.506;2023-04-05T06:05:14;14.23;;;7.35;;
32637;SDS011;19045;52.268;10.506;2023-04-05T06:07:41;15.68;;;8.38;;
32637;SDS011;19045;52.268;10.506;2023-04-05T06:10:08;14.15;;;7.22;;
32637;SDS011;19045;52.268;10.506;2023-04-05T06:12:36;14.40;;;7.50;;
32637;SDS011;19045;52.268;10.506;2023-04-05T06:15:03;18.48;;;7.72;;
32637;SDS011;19045;52.268;10.506;2023-04-05T06:17:30;17.85;;;8.60;;
32637;SDS011;19045;52.268;10.506;2023-04-05T06:19:59;14.95;;;8.55;;
32637;SDS011;19045;52.268;10.506;2023-04-05T06:22:26;17.90;;;8.00;;
32637;SDS011;19045;52.268;10.506;2023-04-05T06:24:52;17.92;;;8.57;;
32637;SDS011;19045;52.268;10.506;2023-04-05T06:27:19;21.77;;;7.25;;
32637;SDS011;19045;52.268;10.506;2023-04-05T06:29:46;20.25;;;7.90;;
32637;SDS011;19045;52.268;10.506;2023-04-05T06:32:12;15.00;;;7.57;;
32637;SDS011;19045;52.268;10.506;2023-04-05T06:34:39;18.10;;;8.57;;
32637;SDS011;19045;52.268;10.506;2023-04-05T06:37:07;20.13;;;8.57;;
32637;SDS011;19045;52.268;10.506;2023-04-05T06:39:33;16.52;;;8.48;;
32637;SDS011;19045;52.268;10.506;2023-04-05T06:42:01;17.73;;;9.13;;
32637;SDS011;19045;52.268;10.506;2023-04-05T06:44:27;19.48;;;9.02;;
32637;SDS011;19045;52.268;10.506;2023-04-05T06:46:54;22.90;;;8.55;;
32637;SDS011;19045;52.268;10.506;2023-04-05T06:49:21;19.08;;;9.35;;
32637;SDS011;19045;52.268;10.506;2023-04-05T06:51:47;19.65;;;9.68;;
32637;SDS011;19045;52.268;10.506;2023-04-05T06:54:16;18.70;;;9.60;;
32637;SDS011;19045;52.268;10.506;2023-04-05T06:56:45;15.85;;;8.80;;
32637;SDS011;19045;52.268;10.506;2023-04-05T06:59:11;24.42;;;10.07;;
32637;SDS011;19045;52.268;10.506;2023-04-05T07:01:38;23.42;;;9.38;;
32637;SDS011;19045;52.268;10.506;2023-04-05T07:04:04;28.35;;;9.75;;
32637;SDS011;19045;52.268;10.506;2023-04-05T07:06:31;20.45;;;9.98;;
32637;SDS011;19045;52.268;10.506;2023-04-05T07:08:59;23.45;;;9.45;;
32637;SDS011;19045;52.268;10.506;2023-04-05T07:11:29;19.25;;;9.60;;
32637;SDS011;19045;52.268;10.506;2023-04-05T07:13:57;21.98;;;9.00;;
32637;SDS011;19045;52.268;10.506;2023-04-05T07:16:23;20.95;;;8.35;;
32637;SDS011;19045;52.268;10.506;2023-04-05T07:18:50;18.23;;;8.98;;
32637;SDS011;19045;52.268;10.506;2023-04-05T07:21:17;16.40;;;8.45;;
32637;SDS011;19045;52.268;10.506;2023-04-05T07:23:43;17.17;;;9.65;;
32637;SDS011;19045;52.268;10.506;2023-04-05T07:26:10;14.00;;;9.18;;
32637;SDS011;19045;52.268;10.506;2023-04-05T07:28:38;18.10;;;8.95;;
32637;SDS011;19045;52.268;10.506;2023-04-05T07:31:05;16.83;;;8.68;;
32637;SDS011;19045;52.268;10.506;2023-04-05T07:33:32;14.13;;;8.82;;
32637;SDS011;19045;52.268;10.506;2023-04-05T07:35:59;19.88;;;9.70;;
32637;SDS011;19045;52.268;10.506;2023-04-05T07:38:27;13.88;;;7.95;;
32637;SDS011;19045;52.268;10.506;2023-04-05T07:40:54;18.65;;;8.68;;
32637;SDS011;19045;52.268;10.506;2023-04-05T07:43:21;17.95;;;8.48;;
32637;SDS011;19045;52.268;10.506;2023-04-05T07:45:50;20.02;;;8.73;;
32637;SDS011;19045;52.268;10.506;2023-04-05T07:48:18;15.98;;;7.93;;
32637;SDS011;19045;52.268;10.506;2023-04-05T07:50:45;16.08;;;8.27;;
32637;SDS011;19045;52.268;10.506;2023-04-05T07:53:11;21.55;;;8.35;;
32637;SDS011;19045;52.268;10.506;2023-04-05T07:55:38;18.70;;;9.07;;
32637;SDS011;19045;52.268;10.506;2023-04-05T07:58:05;18.63;;;9.38;;
32637;SDS011;19045;52.268;10.506;2023-04-05T08:00:31;14.35;;;7.90;;
32637;SDS011;19045;52.268;10.506;2023-04-05T08:03:00;20.58;;;8.35;;
32637;SDS011;19045;52.268;10.506;2023-04-05T08:05:26;16.83;;;8.50;;
32637;SDS011;19045;52.268;10.506;2023-04-05T08:07:53;13.98;;;7.82;;
32637;SDS011;19045;52.268;10.506;2023-04-05T08:10:22;17.45;;;7.53;;
32637;SDS011;19045;52.268;10.506;2023-04-05T08:12:48;17.73;;;7.90;;
32637;SDS011;19045;52.268;10.506;2023-04-05T08:15:15;19.63;;;7.93;;
32637;SDS011;19045;52.268;10.506;2023-04-05T08:17:42;14.07;;;6.95;;
32637;SDS011;19045;52.268;10.506;2023-04-05T08:20:10;11.23;;;5.85;;
32637;SDS011;19045;52.268;10.506;2023-04-05T08:22:38;11.40;;;4.57;;
32637;SDS011;19045;52.268;10.506;2023-04-05T08:25:05;9.73;;;4.20;;
32637;SDS011;19045;52.268;10.506;2023-04-05T08:27:32;12.73;;;5.53;;
32637;SDS011;19045;52.268;10.506;2023-04-05T08:29:59;18.92;;;6.13;;
32637;SDS011;19045;52.268;10.506;2023-04-05T08:32:26;13.23;;;6.00;;
32637;SDS011;19045;52.268;10.506;2023-04-05T08:34:52;18.98;;;5.88;;
32637;SDS011;19045;52.268;10.506;2023-04-05T08:37:20;14.45;;;5.85;;
32637;SDS011;19045;52.268;10.506;2023-04-05T08:39:47;15.82;;;5.43;;
32637;SDS011;19045;52.268;10.506;2023-04-05T08:42:14;12.38;;;4.78;;
32637;SDS011;19045;52.268;10.506;2023-04-05T08:44:43;10.20;;;4.63;;
32637;SDS011;19045;52.268;10.506;2023-04-05T08:47:10;9.23;;;4.20;;
32637;SDS011;19045;52.268;10.506;2023-04-05T08:49:42;14.30;;;4.82;;
32637;SDS011;19045;52.268;10.506;2023-04-05T08:52:09;13.02;;;5.30;;
32637;SDS011;19045;52.268;10.506;2023-04-05T08:54:37;11.15;;;3.38;;
32637;SDS011;19045;52.268;10.506;2023-04-05T08:57:04;7.20;;;3.20;;
32637;SDS011;19045;52.268;10.506;2023-04-05T08:59:32;6.65;;;3.63;;
32637;SDS011;19045;52.268;10.506;2023-04-05T09:02:03;7.03;;;3.58;;
32637;SDS011;19045;52.268;10.506;2023-04-05T09:04:37;5.57;;;3.25;;
32637;SDS011;19045;52.268;10.506;2023-04-05T09:07:09;7.07;;;2.70;;
32637;SDS011;19045;52.268;10.506;2023-04-05T09:09:41;4.85;;;2.45;;
32637;SDS011;19045;52.268;10.506;2023-04-05T09:12:11;9.15;;;2.35;;
32637;SDS011;19045;52.268;10.506;2023-04-05T09:14:38;3.58;;;1.90;;
32637;SDS011;19045;52.268;10.506;2023-04-05T09:17:07;7.95;;;2.75;;
32637;SDS011;19045;52.268;10.506;2023-04-05T09:19:35;5.63;;;2.75;;
32637;SDS011;19045;52.268;10.506;2023-04-05T09:22:02;7.43;;;2.67;;
32637;SDS011;19045;52.268;10.506;2023-04-05T09:24:30;7.80;;;2.83;;
32637;SDS011;19045;52.268;10.506;2023-04-05T09:27:06;7.88;;;2.90;;
32637;SDS011;19045;52.268;10.506;2023-04-05T09:29:34;5.85;;;2.80;;
32637;SDS011;19045;52.268;10.506;2023-04-05T09:32:00;6.43;;;2.58;;
32637;SDS011;19045;52.268;10.506;2023-04-05T09:34:28;5.85;;;2.65;;
32637;SDS011;19045;52.268;10.506;2023-04-05T09:36:56;4.72;;;2.30;;
32637;SDS011;19045;52.268;10.506;2023-04-05T09:39:27;4.47;;;2.10;;
32637;SDS011;19045;52.268;10.506;2023-04-05T09:42:03;5.35;;;2.20;;
32637;SDS011;19045;52.268;10.506;2023-04-05T09:44:48;6.20;;;2.67;;
32637;SDS011;19045;52.268;10.506;2023-04-05T09:47:19;4.18;;;2.58;;
32637;SDS011;19045;52.268;10.506;2023-04-05T09:49:47;7.03;;;2.67;;
32637;SDS011;19045;52.268;10.506;2023-04-05T09:52:17;3.88;;;2.10;;
32637;SDS011;19045;52.268;10.506;2023-04-05T09:54:45;4.83;;;2.20;;
32637;SDS011;19045;52.268;10.506;2023-04-05T09:57:13;7.60;;;2.40;;
32637;SDS011;19045;52.268;10.506;2023-04-05T09:59:41;7.60;;;2.35;;
32637;SDS011;19045;52.268;10.506;2023-04-05T10:02:09;5.45;;;2.47;;
32637;SDS011;19045;52.268;10.506;2023-04-05T10:04:39;5.60;;;2.22;;
32637;SDS011;19045;52.268;10.506;2023-04-05T10:07:07;5.90;;;2.75;;
32637;SDS011;19045;52.268;10.506;2023-04-05T10:09:35;5.35;;;2.22;;
32637;SDS011;19045;52.268;10.506;2023-04-05T10:12:02;7.45;;;2.70;;
32637;SDS011;19045;52.268;10.506;2023-04-05T10:14:30;5.10;;;2.80;;
32637;SDS011;19045;52.268;10.506;2023-04-05T10:16:58;6.80;;;3.15;;
32637;SDS011;19045;52.268;10.506;2023-04-05T10:19:35;8.35;;;2.95;;
32637;SDS011;19045;52.268;10.506;2023-04-05T10:22:11;6.78;;;3.60;;
32637;SDS011;19045;52.268;10.506;2023-04-05T10:27:15;6.15;;;2.75;;
32637;SDS011;19045;52.268;10.506;2023-04-05T10:32:22;6.22;;;3.22;;
32637;SDS011;19045;52.268;10.506;2023-04-05T10:35:01;5.53;;;2.78;;
32637;SDS011;19045;52.268;10.506;2023-04-05T10:37:35;7.78;;;3.65;;
32637;SDS011;19045;52.268;10.506;2023-04-05T10:40:12;6.47;;;2.95;;
32637;SDS011;19045;52.268;10.506;2023-04-05T10:42:41;5.70;;;3.22;;
32637;SDS011;19045;52.268;10.506;2023-04-05T10:45:11;6.45;;;3.22;;
32637;SDS011;19045;52.268;10.506;2023-04-05T10:47:41;4.60;;;2.95;;
32637;SDS011;19045;52.268;10.506;2023-04-05T10:50:14;6.18;;;3.63;;
32637;SDS011;19045;52.268;10.506;2023-04-05T10:52:47;7.20;;;3.10;;
32637;SDS011;19045;52.268;10.506;2023-04-05T10:55:15;7.18;;;3.13;;
32637;SDS011;19045;52.268;10.506;2023-04-05T10:57:42;6.70;;;3.42;;
32637;SDS011;19045;52.268;10.506;2023-04-05T11:00:12;5.78;;;2.90;;
32637;SDS011;19045;52.268;10.506;2023-04-05T11:02:40;7.00;;;3.72;;
32637;SDS011;19045;52.268;10.506;2023-04-05T11:05:11;6.75;;;3.10;;
32637;SDS011;19045;52.268;10.506;2023-04-05T11:07:56;7.05;;;3.33;;
32637;SDS011;19045;52.268;10.506;2023-04-05T11:10:26;6.43;;;2.90;;
32637;SDS011;19045;52.268;10.506;2023-04-05T11:13:03;8.10;;;2.92;;
32637;SDS011;19045;52.268;10.506;2023-04-05T11:15:33;6.13;;;2.53;;
32637;SDS011;19045;52.268;10.506;2023-04-05T11:18:01;4.97;;;2.05;;
32637;SDS011;19045;52.268;10.506;2023-04-05T11:20:38;3.30;;;2.03;;
32637;SDS011;19045;52.268;10.506;2023-04-05T11:23:09;5.07;;;2.17;;
32637;SDS011;19045;52.268;10.506;2023-04-05T11:25:37;3.88;;;1.77;;
32637;SDS011;19045;52.268;10.506;2023-04-05T11:28:05;3.80;;;1.95;;
32637;SDS011;19045;52.268;10.506;2023-04-05T11:30:46;5.03;;;1.90;;
32637;SDS011;19045;52.268;10.506;2023-04-05T11:33:37;2.97;;;1.92;;
32637;SDS011;19045;52.268;10.506;2023-04-05T11:36:28;3.88;;;2.13;;
32637;SDS011;19045;52.268;10.506;2023-04-05T11:41:54;3.55;;;2.00;;
32637;SDS011;19045;52.268;10.506;2023-04-05T11:44:23;4.75;;;2.00;;
32637;SDS011;19045;52.268;10.506;2023-04-05T11:46:51;2.58;;;1.50;;
32637;SDS011;19045;52.268;10.506;2023-04-05T11:49:20;7.07;;;2.20;;
32637;SDS011;19045;52.268;10.506;2023-04-05T11:51:47;4.20;;;2.28;;
32637;SDS011;19045;52.268;10.506;2023-04-05T11:54:26;3.65;;;1.90;;
32637;SDS011;19045;52.268;10.506;2023-04-05T11:56:56;4.68;;;2.10;;
32637;SDS011;19045;52.268;10.506;2023-04-05T11:59:29;3.78;;;2.40;;
32637;SDS011;19045;52.268;10.506;2023-04-05T12:01:58;3.95;;;2.35;;
32637;SDS011;19045;52.268;10.506;2023-04-05T12:04:26;6.75;;;2.33;;
32637;SDS011;19045;52.268;10.506;2023-04-05T12:07:08;7.63;;;2.20;;
32637;SDS011;19045;52.268;10.506;2023-04-05T12:09:56;9.18;;;2.50;;
32637;SDS011;19045;52.268;10.506;2023-04-05T12:12:34;9.98;;;2.78;;
32637;SDS011;19045;52.268;10.506;2023-04-05T12:15:02;4.00;;;2.10;;
32637;SDS011;19045;52.268;10.506;2023-04-05T12:17:40;6.40;;;2.17;;
32637;SDS011;19045;52.268;10.506;2023-04-05T12:20:08;4.50;;;2.30;;
32637;SDS011;19045;52.268;10.506;2023-04-05T12:22:35;6.55;;;2.33;;
32637;SDS011;19045;52.268;10.506;2023-04-05T12:25:02;5.30;;;2.45;;
32637;SDS011;19045;52.268;10.506;2023-04-05T12:27:30;5.22;;;2.35;;
32637;SDS011;19045;52.268;10.506;2023-04-05T12:30:06;6.00;;;2.80;;
32637;SDS011;19045;52.268;10.506;2023-04-05T12:35:11;6.57;;;2.50;;
32637;SDS011;19045;52.268;10.506;2023-04-05T12:37:39;4.53;;;2.45;;
32637;SDS011;19045;52.268;10.506;2023-04-05T12:40:06;9.43;;;3.25;;
32637;SDS011;19045;52.268;10.506;2023-04-05T12:42:35;9.43;;;2.60;;
32637;SDS011;19045;52.268;10.506;2023-04-05T12:45:03;6.55;;;2.63;;
32637;SDS011;19045;52.268;10.506;2023-04-05T12:47:31;4.82;;;2.53;;
32637;SDS011;19045;52.268;10.506;2023-04-05T12:50:10;4.97;;;2.33;;
32637;SDS011;19045;52.268;10.506;2023-04-05T12:52:37;4.45;;;2.67;;
32637;SDS011;19045;52.268;10.506;2023-04-05T12:55:13;4.80;;;2.50;;
32637;SDS011;19045;52.268;10.506;2023-04-05T12:57:40;3.83;;;2.20;;
32637;SDS011;19045;52.268;10.506;2023-04-05T13:00:07;3.75;;;2.70;;
32637;SDS011;19045;52.268;10.506;2023-04-05T13:02:35;6.45;;;3.35;;
32637;SDS011;19045;52.268;10.506;2023-04-05T13:05:03;5.38;;;2.78;;
32637;SDS011;19045;52.268;10.506;2023-04-05T13:07:32;5.43;;;3.03;;
32637;SDS011;19045;52.268;10.506;2023-04-05T13:09:58;4.07;;;2.60;;
32637;SDS011;19045;52.268;10.506;2023-04-05T13:12:25;3.78;;;2.50;;
32637;SDS011;19045;52.268;10.506;2023-04-05T13:14:52;7.85;;;3.13;;
32637;SDS011;19045;52.268;10.506;2023-04-05T13:17:18;4.38;;;2.60;;
32637;SDS011;19045;52.268;10.506;2023-04-05T13:19:45;5.38;;;2.42;;
32637;SDS011;19045;52.268;10.506;2023-04-05T13:22:11;10.70;;;2.60;;
32637;SDS011;19045;52.268;10.506;2023-04-05T13:24:39;4.55;;;2.60;;
32637;SDS011;19045;52.268;10.506;2023-04-05T13:27:06;9.20;;;3.20;;
32637;SDS011;19045;52.268;10.506;2023-04-05T13:29:32;6.53;;;2.80;;
32637;SDS011;19045;52.268;10.506;2023-04-05T13:31:59;5.05;;;2.75;;
32637;SDS011;19045;52.268;10.506;2023-04-05T13:34:26;6.20;;;2.88;;
32637;SDS011;19045;52.268;10.506;2023-04-05T13:36:52;5.40;;;3.10;;
32637;SDS011;19045;52.268;10.506;2023-04-05T13:39:19;5.35;;;3.20;;
32637;SDS011;19045;52.268;10.506;2023-04-05T13:41:47;3.78;;;2.47;;
32637;SDS011;19045;52.268;10.506;2023-04-05T13:44:14;4.25;;;2.58;;
32637;SDS011;19045;52.268;10.506;2023-04-05T13:46:40;5.63;;;2.97;;
32637;SDS011;19045;52.268;10.506;2023-04-05T13:49:07;6.68;;;2.83;;
32637;SDS011;19045;52.268;10.506;2023-04-05T13:51:34;4.28;;;2.00;;
32637;SDS011;19045;52.268;10.506;2023-04-05T13:54:05;6.25;;;2.60;;
32637;SDS011;19045;52.268;10.506;2023-04-05T13:56:32;9.07;;;2.85;;
32637;SDS011;19045;52.268;10.506;2023-04-05T13:58:59;11.77;;;3.75;;
32637;SDS011;19045;52.268;10.506;2023-04-05T14:01:26;5.95;;;3.03;;
32637;SDS011;19045;52.268;10.506;2023-04-05T14:03:53;4.82;;;2.33;;
32637;SDS011;19045;52.268;10.506;2023-04-05T14:06:19;9.98;;;2.50;;
32637;SDS011;19045;52.268;10.506;2023-04-05T14:08:46;5.63;;;3.03;;
32637;SDS011;19045;52.268;10.506;2023-04-05T14:11:18;5.45;;;2.72;;
32637;SDS011;19045;52.268;10.506;2023-04-05T14:13:45;4.45;;;2.67;;
32637;SDS011;19045;52.268;10.506;2023-04-05T14:16:13;9.88;;;3.15;;
32637;SDS011;19045;52.268;10.506;2023-04-05T14:18:40;7.65;;;2.88;;
32637;SDS011;19045;52.268;10.506;2023-04-05T14:21:07;4.72;;;2.80;;
32637;SDS011;19045;52.268;10.506;2023-04-05T14:23:33;4.85;;;2.78;;
32637;SDS011;19045;52.268;10.506;2023-04-05T14:26:00;10.35;;;3.30;;
32637;SDS011;19045;52.268;10.506;2023-04-05T14:28:27;5.53;;;2.65;;
32637;SDS011;19045;52.268;10.506;2023-04-05T14:30:53;5.55;;;2.92;;
32637;SDS011;19045;52.268;10.506;2023-04-05T14:33:23;4.30;;;3.00;;
32637;SDS011;19045;52.268;10.506;2023-04-05T14:35:51;4.28;;;2.42;;
32637;SDS011;19045;52.268;10.506;2023-04-05T14:38:17;5.97;;;3.25;;
32637;SDS011;19045;52.268;10.506;2023-04-05T14:40:44;4.55;;;2.40;;
32637;SDS011;19045;52.268;10.506;2023-04-05T14:43:11;4.60;;;2.75;;
32637;SDS011;19045;52.268;10.506;2023-04-05T14:45:38;5.20;;;2.97;;